Time;durP1;ratioP1;P1;durP2;ratioP2;P2;SDS_P1;SDS_P2;PMS_P1;PMS_P2;Temp;Humidity;BMP_temperature;BMP_pressure;BME280_temperature;BME280_humidity;BME280_pressure;Samples;Min_cycle;Max_cycle;Signal;HPM_P1;HPM_P2
2022/02/03 00:00:40;;;;;;;11.52;2.13;;;21.00;99.90;;;;;;5054716;28;20036;-66
2022/02/03 00:03:18;;;;;;;10.90;1.70;;;21.30;99.90;;;;;;5052676;28;20060;-66
2022/02/03 00:05:54;;;;;;;11.27;2.63;;;21.30;99.90;;;;;;5052655;28;20055;-66
2022/02/03 00:08:36;;;;;;;10.73;1.77;;;21.20;99.90;;;;;;5052314;28;20021;-67
2022/02/03 00:25:11;;;;;;;9.38;1.45;;;22.00;99.90;;;;;;5054144;28;20163;-67
2022/02/03 00:27:55;;;;;;;7.55;1.75;;;22.10;99.90;;;;;;5053298;28;20053;-67
2022/02/03 00:30:47;;;;;;;11.10;1.73;;;21.60;99.90;;;;;;5052836;28;20033;-66
2022/02/03 00:33:28;;;;;;;8.68;2.03;;;21.60;99.90;;;;;;5052569;28;20124;-66
2022/02/03 00:49:48;;;;;;;12.80;2.03;;;22.00;99.90;;;;;;5053831;28;20054;-66
2022/02/03 00:52:17;;;;;;;7.32;1.92;;;22.30;99.90;;;;;;5052983;28;20029;-67
2022/02/03 00:54:44;;;;;;;7.05;1.55;;;22.00;99.90;;;;;;5053760;28;20028;-66
2022/02/03 00:57:22;;;;;;;11.15;1.75;;;22.00;99.90;;;;;;5052734;28;20466;-67
2022/02/03 01:00:02;;;;;;;12.95;2.28;;;22.10;99.90;;;;;;5048289;28;20033;-66
2022/02/03 01:02:32;;;;;;;12.50;2.05;;;22.30;99.90;;;;;;5052096;28;20485;-66
2022/02/03 01:05:03;;;;;;;6.22;1.70;;;22.30;99.90;;;;;;5053208;28;20489;-66
2022/02/03 01:07:36;;;;;;;7.85;1.60;;;22.60;99.90;;;;;;5052503;28;20025;-66
2022/02/03 01:10:14;;;;;;;7.50;1.83;;;22.90;99.90;;;;;;5053154;28;20074;-67
2022/02/03 01:13:08;;;;;;;15.23;2.22;;;23.10;99.90;;;;;;5051143;28;20424;-67
2022/02/03 01:15:46;;;;;;;8.32;2.03;;;22.90;99.90;;;;;;5052735;28;20112;-66
2022/02/03 01:21:38;;;;;;;9.65;1.88;;;23.20;99.90;;;;;;5052659;28;20029;-67
2022/02/03 01:35:02;;;;;;;10.25;1.58;;;22.60;99.90;;;;;;5052441;28;20075;-67
2022/02/03 01:48:35;;;;;;;8.55;1.77;;;22.60;99.90;;;;;;5052058;28;20516;-66
2022/02/03 01:53:50;;;;;;;10.88;2.17;;;23.10;99.90;;;;;;5042650;28;20087;-67
2022/02/03 01:56:20;;;;;;;8.40;1.75;;;22.80;99.90;;;;;;5046039;28;20104;-67
2022/02/03 01:58:47;;;;;;;7.05;1.45;;;23.30;99.90;;;;;;5052023;28;20599;-66
2022/02/03 02:01:21;;;;;;;8.23;1.50;;;23.20;99.90;;;;;;5052790;28;20027;-67
2022/02/03 02:04:10;;;;;;;9.88;1.58;;;23.00;99.90;;;;;;5051817;28;20029;-67
2022/02/03 02:07:10;;;;;;;15.00;2.40;;;23.00;99.90;;;;;;5051699;28;20382;-66
2022/02/03 02:13:34;;;;;;;12.82;2.13;;;23.40;99.90;;;;;;5045408;28;20436;-67
2022/02/03 02:16:38;;;;;;;11.13;2.50;;;23.40;99.90;;;;;;5056583;28;20032;-66
2022/02/03 02:39:09;;;;;;;14.55;2.55;;;23.20;99.90;;;;;;5039168;28;20048;-66
2022/02/03 02:44:33;;;;;;;7.82;1.67;;;22.80;99.90;;;;;;5056405;28;20033;-66
2022/02/03 02:47:03;;;;;;;4.95;1.25;;;22.30;99.90;;;;;;5053741;28;20021;-66
2022/02/03 02:49:53;;;;;;;10.63;1.63;;;22.40;99.90;;;;;;5055616;28;20378;-67
2022/02/03 02:52:38;;;;;;;8.30;1.50;;;22.50;99.90;;;;;;5055043;28;20036;-67
2022/02/03 03:03:48;;;;;;;8.60;2.25;;;22.60;99.90;;;;;;5055129;28;20033;-66
2022/02/03 03:29:08;;;;;;;9.45;1.35;;;22.30;99.90;;;;;;5054948;28;20060;-66
2022/02/03 03:32:09;;;;;;;13.52;1.63;;;22.70;99.90;;;;;;5054962;28;20044;-67
2022/02/03 03:35:06;;;;;;;9.38;1.50;;;22.80;99.90;;;;;;5054794;28;20683;-66
2022/02/03 03:37:45;;;;;;;11.07;2.00;;;22.70;99.90;;;;;;5043834;28;20116;-68
2022/02/03 03:40:14;;;;;;;9.00;1.60;;;22.80;99.90;;;;;;5051576;28;20057;-67
2022/02/03 03:43:06;;;;;;;7.97;1.65;;;22.80;99.90;;;;;;5044542;28;20057;-66
2022/02/03 03:45:35;;;;;;;9.13;1.45;;;23.00;99.90;;;;;;5050601;28;20094;-67
2022/02/03 03:48:05;;;;;;;6.30;1.55;;;22.80;99.90;;;;;;5048786;28;20021;-66
2022/02/03 03:50:39;;;;;;;12.05;2.22;;;22.70;99.90;;;;;;5050879;28;20044;-67
2022/02/03 03:53:22;;;;;;;9.35;1.65;;;22.90;99.90;;;;;;5051519;28;20439;-66
2022/02/03 03:56:01;;;;;;;10.60;1.85;;;23.00;99.90;;;;;;5047130;28;20033;-67
2022/02/03 04:34:45;;;;;;;8.98;1.98;;;21.90;99.90;;;;;;5047352;28;20046;-67
2022/02/03 04:57:10;;;;;;;8.15;2.10;;;21.80;99.90;;;;;;5037578;28;20710;-67
2022/02/03 05:03:00;;;;;;;8.90;1.63;;;21.50;99.90;;;;;;5043896;28;20060;-67
2022/02/03 05:12:04;;;;;;;11.20;1.55;;;21.10;99.90;;;;;;5038651;28;20110;-65
2022/02/03 05:21:53;;;;;;;8.70;1.65;;;21.30;99.90;;;;;;5047997;28;20390;-66
2022/02/03 05:33:14;;;;;;;13.57;2.15;;;22.00;99.90;;;;;;5049362;28;21728;-65
2022/02/03 05:45:19;;;;;;;10.52;1.70;;;21.70;99.90;;;;;;5047076;28;20516;-67
2022/02/03 06:02:11;;;;;;;6.35;0.77;;;22.30;99.90;;;;;;5043890;28;20118;-67
2022/02/03 06:12:54;;;;;;;9.63;1.00;;;22.10;99.90;;;;;;5008179;28;20034;-68
2022/02/03 06:23:58;;;;;;;8.80;1.67;;;22.50;99.90;;;;;;5040870;28;20100;-67
2022/02/03 06:29:14;;;;;;;7.35;1.15;;;22.50;99.90;;;;;;5047092;28;20072;-67
2022/02/03 06:31:43;;;;;;;10.10;1.35;;;22.70;99.90;;;;;;5043817;28;20064;-67
2022/02/03 06:34:11;;;;;;;6.15;1.52;;;22.60;99.90;;;;;;5047640;28;20536;-67
2022/02/03 06:36:40;;;;;;;8.98;1.92;;;22.40;99.90;;;;;;5046801;28;20065;-68
2022/02/03 06:39:20;;;;;;;9.63;1.65;;;22.20;99.90;;;;;;5041683;28;20121;-67
2022/02/03 06:41:53;;;;;;;11.23;1.52;;;22.20;99.90;;;;;;5043836;28;20053;-67
2022/02/03 06:44:27;;;;;;;5.82;0.82;;;22.10;99.90;;;;;;5046821;28;20044;-67
2022/02/03 06:46:58;;;;;;;9.82;1.13;;;22.00;99.90;;;;;;5048740;28;20021;-67
2022/02/03 06:52:12;;;;;;;8.90;1.40;;;22.00;99.90;;;;;;5046805;28;20587;-67
2022/02/03 06:54:55;;;;;;;10.05;1.08;;;21.80;99.90;;;;;;5049482;28;20047;-67
2022/02/03 06:57:35;;;;;;;7.97;1.40;;;21.60;99.90;;;;;;5051978;28;20036;-67
2022/02/03 07:00:07;;;;;;;8.88;1.50;;;21.50;99.90;;;;;;5048604;28;20032;-67
2022/02/03 07:02:39;;;;;;;6.90;1.35;;;21.60;99.90;;;;;;5045058;28;20044;-67
2022/02/03 07:05:07;;;;;;;7.50;1.25;;;21.40;99.90;;;;;;5043264;28;20616;-67
2022/02/03 07:07:39;;;;;;;3.97;0.88;;;21.30;99.90;;;;;;5049735;28;20485;-67
2022/02/03 07:10:08;;;;;;;5.82;0.93;;;21.40;99.90;;;;;;5053159;28;20017;-67
2022/02/03 07:12:36;;;;;;;11.32;1.65;;;21.50;99.90;;;;;;5045578;28;20501;-68
2022/02/03 07:15:05;;;;;;;6.38;1.85;;;21.40;99.90;;;;;;5054844;28;20025;-67
2022/02/03 07:17:34;;;;;;;9.40;1.50;;;21.20;99.90;;;;;;5046208;28;20032;-67
2022/02/03 07:20:04;;;;;;;7.63;1.10;;;21.20;99.90;;;;;;5053978;28;20037;-67
2022/02/03 07:22:32;;;;;;;12.43;1.42;;;21.20;99.90;;;;;;5049130;28;20025;-68
2022/02/03 07:25:00;;;;;;;7.85;1.00;;;21.20;99.90;;;;;;5051000;28;20144;-67
2022/02/03 07:27:27;;;;;;;19.98;3.25;;;21.10;99.90;;;;;;5047358;28;20041;-67
2022/02/03 07:29:55;;;;;;;13.60;2.70;;;20.90;99.90;;;;;;5051497;28;20032;-67
2022/02/03 07:32:23;;;;;;;11.73;2.42;;;20.70;99.90;;;;;;5052277;28;20043;-67
2022/02/03 07:34:55;;;;;;;16.08;2.60;;;20.60;99.90;;;;;;5053162;28;20083;-67
2022/02/03 07:37:24;;;;;;;16.10;2.45;;;20.60;99.90;;;;;;5042683;28;20420;-67
2022/02/03 07:39:52;;;;;;;16.48;3.35;;;20.60;99.90;;;;;;5048826;28;20047;-67
2022/02/03 07:42:19;;;;;;;15.90;3.03;;;20.50;99.90;;;;;;5050554;28;20032;-64
2022/02/03 07:44:47;;;;;;;17.65;3.90;;;20.50;99.90;;;;;;5049100;28;20029;-64
2022/02/03 07:47:15;;;;;;;10.13;1.73;;;20.50;99.90;;;;;;5048593;28;20017;-64
2022/02/03 07:49:43;;;;;;;14.18;2.08;;;20.60;99.90;;;;;;5045950;28;20037;-64
2022/02/03 07:52:11;;;;;;;7.57;1.77;;;20.70;99.90;;;;;;5047145;28;20039;-64
2022/02/03 07:54:40;;;;;;;12.88;2.33;;;20.70;99.90;;;;;;5050535;28;20470;-64
2022/02/03 07:57:07;;;;;;;9.43;2.13;;;20.80;99.90;;;;;;5053633;28;20029;-64
2022/02/03 07:59:35;;;;;;;7.15;1.35;;;20.80;99.90;;;;;;5054270;28;20051;-64
2022/02/03 08:02:02;;;;;;;7.65;1.90;;;20.90;99.90;;;;;;5044555;28;20060;-64
2022/02/03 08:04:32;;;;;;;6.70;1.02;;;20.90;99.90;;;;;;5047512;28;20383;-64
2022/02/03 08:07:00;;;;;;;10.75;1.70;;;20.80;99.90;;;;;;5047696;28;20074;-64
2022/02/03 08:10:17;;;;;;;8.70;1.45;;;20.80;99.90;;;;;;5054598;28;20477;-64
2022/02/03 08:12:21;;;;;;;8.10;1.05;;;20.70;99.90;;;;;;5038383;28;20513;-64
2022/02/03 08:14:50;;;;;;;11.80;1.70;;;20.70;99.90;;;;;;5053755;28;20029;-64
2022/02/03 08:17:22;;;;;;;17.55;2.70;;;20.70;99.90;;;;;;5053125;28;20091;-64
2022/02/03 08:22:22;;;;;;;23.63;3.92;;;20.40;99.90;;;;;;5052372;28;20157;-64
2022/02/03 08:25:05;;;;;;;13.63;2.53;;;19.90;99.90;;;;;;5050639;28;20119;-63
2022/02/03 08:27:53;;;;;;;12.65;3.45;;;19.50;99.90;;;;;;5048833;28;20052;-64
2022/02/03 08:30:44;;;;;;;17.38;3.13;;;19.40;99.90;;;;;;5046364;28;20393;-64
2022/02/03 08:33:18;;;;;;;21.63;3.85;;;19.30;99.90;;;;;;5051081;28;20065;-64
2022/02/03 08:35:49;;;;;;;17.15;3.58;;;19.20;99.90;;;;;;5054061;28;20389;-64
2022/02/03 08:38:28;;;;;;;15.80;3.85;;;19.20;99.90;;;;;;5052914;28;20051;-64
2022/02/03 08:43:24;;;;;;;14.57;4.03;;;19.20;99.90;;;;;;5052744;28;20524;-64
2022/02/03 08:45:51;;;;;;;21.25;3.92;;;19.30;99.90;;;;;;5044826;28;20174;-64
2022/02/03 08:48:19;;;;;;;9.85;3.03;;;19.30;99.90;;;;;;5049403;28;20505;-64
2022/02/03 08:50:47;;;;;;;18.70;9.02;;;19.30;99.90;;;;;;5052873;28;20047;-64
2022/02/03 08:53:21;;;;;;;16.63;3.65;;;19.40;99.90;;;;;;5050980;28;20036;-64
2022/02/03 09:30:05;;;;;;;10.80;2.22;;;20.30;99.90;;;;;;5046237;28;20055;-65
2022/02/03 09:51:49;;;;;;;14.18;2.83;;;20.30;99.90;;;;;;5046296;28;20052;-64
2022/02/03 09:59:34;;;;;;;13.25;3.03;;;20.30;99.90;;;;;;5051671;28;20032;-64
2022/02/03 10:02:14;;;;;;;8.05;2.00;;;20.20;99.90;;;;;;5047760;28;20043;-64
2022/02/03 10:04:47;;;;;;;18.48;2.35;;;20.20;99.90;;;;;;5050514;28;20025;-64
2022/02/03 10:07:21;;;;;;;13.07;2.58;;;20.20;99.90;;;;;;5051229;28;20031;-64
2022/02/03 10:09:52;;;;;;;9.57;2.00;;;20.20;99.90;;;;;;5047823;28;20037;-64
2022/02/03 10:12:29;;;;;;;14.68;2.92;;;20.20;99.90;;;;;;5049527;28;20627;-64
2022/02/03 10:14:57;;;;;;;12.18;2.55;;;20.10;99.90;;;;;;5049307;28;20052;-64
2022/02/03 10:17:40;;;;;;;13.55;2.38;;;20.10;99.90;;;;;;5050199;28;20028;-63
2022/02/03 10:20:14;;;;;;;18.85;3.13;;;20.20;99.90;;;;;;5051240;28;20029;-65
2022/02/03 10:22:48;;;;;;;;;;;20.10;99.90;;;;;;5044202;28;20115;-65
2022/02/03 10:25:24;;;;;;;13.70;2.15;;;20.20;99.90;;;;;;5043119;28;19962;-65
2022/02/03 10:28:07;;;;;;;9.57;1.58;;;20.20;99.90;;;;;;5041814;28;20049;-64
2022/02/03 10:30:42;;;;;;;11.80;1.92;;;20.20;99.90;;;;;;5049441;28;20026;-65
2022/02/03 10:33:09;;;;;;;11.85;2.80;;;20.20;99.90;;;;;;5054473;28;20070;-65
2022/02/03 10:35:51;;;;;;;10.13;1.85;;;20.20;99.90;;;;;;5055363;28;20464;-65
2022/02/03 10:41:53;;;;;;;18.23;2.65;;;20.10;99.90;;;;;;5056027;28;20036;-64
2022/02/03 10:44:53;;;;;;;;;;;20.10;99.90;;;;;;5048371;28;20029;-64
2022/02/03 11:01:13;;;;;;;19.67;2.50;;;20.10;99.90;;;;;;5029937;28;20045;-65
2022/02/03 11:08:58;;;;;;;;;;;20.10;99.90;;;;;;5048898;28;20029;-65
2022/02/03 11:11:39;;;;;;;13.35;2.92;;;20.00;99.90;;;;;;5050668;28;19917;-64
2022/02/03 11:14:07;;;;;;;18.58;2.97;;;19.90;99.90;;;;;;5042924;28;20489;-65
2022/02/03 11:16:42;;;;;;;15.20;2.75;;;19.70;99.90;;;;;;5053087;28;20112;-65
2022/02/03 11:19:13;;;;;;;28.70;3.88;;;19.60;99.90;;;;;;5051878;28;20651;-64
2022/02/03 11:21:45;;;;;;;23.23;3.50;;;19.40;99.90;;;;;;5052249;28;20075;-64
2022/02/03 11:24:21;;;;;;;20.83;3.40;;;19.40;99.90;;;;;;5040149;28;20508;-65
2022/02/03 11:32:31;;;;;;;22.38;3.22;;;19.50;99.90;;;;;;5054110;28;20036;-65
2022/02/03 11:38:01;;;;;;;13.35;2.08;;;19.60;99.90;;;;;;5052541;28;20079;-66
2022/02/03 12:16:19;;;;;;;13.65;2.20;;;19.80;99.90;;;;;;5049119;28;20305;-65
2022/02/03 12:22:10;;;;;;;21.08;3.25;;;19.90;99.90;;;;;;5046901;28;20029;-65
2022/02/03 12:24:52;;;;;;;20.50;3.10;;;19.90;99.90;;;;;;5025090;28;20052;-65
2022/02/03 12:30:01;;;;;;;16.90;3.17;;;19.90;99.90;;;;;;5053061;28;20126;-65
2022/02/03 12:40:51;;;;;;;16.85;2.30;;;19.90;99.90;;;;;;5034175;28;20029;-66
2022/02/03 12:45:52;;;;;;;12.02;2.35;;;19.90;99.90;;;;;;5052028;28;20655;-66
2022/02/03 12:48:27;;;;;;;11.85;1.70;;;19.80;99.90;;;;;;5045252;28;20096;-66
2022/02/03 12:50:55;;;;;;;12.80;3.38;;;19.80;99.90;;;;;;5044391;28;20033;-66
2022/02/03 12:53:31;;;;;;;13.18;2.47;;;19.80;99.90;;;;;;5051636;28;20615;-65
2022/02/03 12:56:02;;;;;;;15.20;2.53;;;19.80;99.90;;;;;;5049757;28;20017;-65
2022/02/03 12:58:36;;;;;;;9.85;2.65;;;19.80;99.90;;;;;;5038307;28;20044;-65
2022/02/03 13:01:11;;;;;;;11.30;2.45;;;19.80;99.90;;;;;;5044119;28;20029;-65
2022/02/03 13:03:42;;;;;;;12.63;2.28;;;19.70;99.90;;;;;;5051601;28;20033;-66
2022/02/03 13:06:19;;;;;;;12.95;2.42;;;19.70;99.90;;;;;;5033471;28;20040;-66
2022/02/03 13:08:57;;;;;;;14.60;2.75;;;19.70;99.90;;;;;;5050789;28;20067;-65
2022/02/03 13:11:53;;;;;;;14.45;2.40;;;19.70;99.90;;;;;;5037439;28;20025;-66
2022/02/03 13:14:32;;;;;;;18.48;2.50;;;19.50;99.90;;;;;;5045869;28;20029;-66
2022/02/03 13:17:09;;;;;;;12.18;3.22;;;19.30;99.90;;;;;;5051308;28;20025;-65
2022/02/03 13:22:29;;;;;;;18.45;2.75;;;19.30;99.90;;;;;;5037698;28;20365;-66
2022/02/03 13:27:34;;;;;;;18.35;3.60;;;19.00;99.90;;;;;;5050415;28;21185;-66
2022/02/03 13:30:09;;;;;;;13.68;2.78;;;19.00;99.90;;;;;;5050930;28;20033;-66
2022/02/03 13:32:44;;;;;;;12.27;2.75;;;19.00;99.90;;;;;;5051126;28;20040;-66
2022/02/03 13:35:32;;;;;;;18.33;2.67;;;18.90;99.90;;;;;;5050305;28;20032;-66
2022/02/03 13:38:21;;;;;;;12.15;2.88;;;18.90;99.90;;;;;;5051553;28;20106;-66
2022/02/03 13:40:47;;;;;;;16.15;2.45;;;19.00;99.90;;;;;;5051332;28;20033;-66
2022/02/03 13:43:14;;;;;;;13.50;1.73;;;19.00;99.90;;;;;;5048675;28;20021;-66
2022/02/03 13:45:44;;;;;;;16.75;2.60;;;19.00;99.90;;;;;;5052994;28;20108;-65
2022/02/03 13:48:20;;;;;;;13.65;2.13;;;18.90;99.90;;;;;;5049905;28;20081;-65
2022/02/03 13:50:54;;;;;;;10.75;2.30;;;18.70;99.90;;;;;;5042912;28;20033;-65
2022/02/03 13:53:32;;;;;;;9.95;2.00;;;18.50;99.90;;;;;;5050656;28;20697;-65
2022/02/03 14:19:16;;;;;;;12.32;2.08;;;18.10;99.90;;;;;;5053269;28;20096;-66
2022/02/03 14:21:45;;;;;;;10.50;2.47;;;18.00;99.90;;;;;;5050498;28;20147;-65
2022/02/03 14:27:44;;;;;;;13.02;2.42;;;18.00;99.90;;;;;;5041414;28;20099;-66
2022/02/03 14:30:14;;;;;;;10.27;1.63;;;18.00;99.90;;;;;;5045144;28;20417;-65
2022/02/03 14:32:43;;;;;;;10.90;1.77;;;18.00;99.90;;;;;;5049980;28;20039;-65
2022/02/03 14:35:11;;;;;;;15.07;2.55;;;17.90;99.90;;;;;;5050685;28;20111;-65
2022/02/03 14:40:39;;;;;;;12.75;1.90;;;17.80;99.90;;;;;;5035183;28;20045;-65
2022/02/03 14:43:07;;;;;;;11.20;2.35;;;17.80;99.90;;;;;;5055186;28;20031;-65
2022/02/03 14:45:35;;;;;;;7.82;1.48;;;17.80;99.90;;;;;;5055287;28;20025;-65
2022/02/03 14:48:03;;;;;;;14.13;1.77;;;17.70;99.90;;;;;;5039527;28;20466;-63
2022/02/03 14:50:30;;;;;;;14.10;2.08;;;17.70;99.90;;;;;;5050355;28;20072;-63
2022/02/03 14:53:00;;;;;;;12.82;2.33;;;17.80;99.90;;;;;;5053682;28;20036;-63
2022/02/03 14:58:22;;;;;;;13.00;2.05;;;17.70;99.90;;;;;;5040031;28;20067;-64
2022/02/03 15:00:50;;;;;;;12.63;1.30;;;17.80;99.90;;;;;;5047085;28;20398;-64
2022/02/03 15:03:20;;;;;;;12.60;2.25;;;17.70;99.90;;;;;;5053528;28;20096;-64
2022/02/03 15:05:47;;;;;;;10.93;1.73;;;17.70;99.90;;;;;;5050871;28;20028;-64
2022/02/03 15:08:19;;;;;;;9.35;2.00;;;17.70;99.90;;;;;;5054226;28;20048;-64
2022/02/03 15:11:06;;;;;;;18.83;2.60;;;17.80;99.90;;;;;;5053260;28;20033;-64
2022/02/03 15:13:45;;;;;;;12.20;2.40;;;17.90;99.90;;;;;;5048187;28;20083;-64
2022/02/03 15:16:15;;;;;;;17.48;2.42;;;17.90;99.90;;;;;;5054905;28;20440;-64
2022/02/03 15:18:42;;;;;;;15.48;2.75;;;17.90;99.90;;;;;;5048273;28;20049;-64
2022/02/03 15:21:10;;;;;;;10.43;1.38;;;17.90;99.90;;;;;;5043989;28;20029;-64
2022/02/03 15:23:38;;;;;;;10.00;1.30;;;17.90;99.90;;;;;;5045575;28;20024;-64
2022/02/03 15:26:05;;;;;;;7.53;1.52;;;17.90;99.90;;;;;;5053181;28;20035;-64
2022/02/03 15:28:33;;;;;;;10.43;1.13;;;18.00;99.90;;;;;;5053652;28;20053;-64
2022/02/03 15:31:03;;;;;;;14.45;1.75;;;18.00;99.90;;;;;;5050444;28;20385;-64
2022/02/03 15:33:30;;;;;;;10.00;1.45;;;18.00;99.90;;;;;;5052317;28;20404;-64
2022/02/03 15:36:02;;;;;;;6.53;1.65;;;18.00;99.90;;;;;;5054680;28;20358;-64
2022/02/03 15:38:34;;;;;;;8.35;1.80;;;18.00;99.90;;;;;;5054734;28;20025;-64
2022/02/03 15:41:04;;;;;;;11.85;2.10;;;17.90;99.90;;;;;;5053279;28;20435;-64
2022/02/03 15:43:39;;;;;;;12.10;1.90;;;17.90;99.90;;;;;;5039392;28;20021;-64
2022/02/03 15:46:06;;;;;;;9.40;2.05;;;18.00;99.90;;;;;;5053769;28;20478;-65
2022/02/03 16:04:29;;;;;;;9.20;1.65;;;17.80;99.90;;;;;;5045114;28;20078;-64
2022/02/03 16:17:57;;;;;;;7.25;1.45;;;17.80;99.90;;;;;;5054222;28;20044;-64
2022/02/03 16:20:31;;;;;;;8.95;1.52;;;17.90;99.90;;;;;;5051214;28;20029;-64
2022/02/03 16:52:53;;;;;;;19.95;3.28;;;17.10;99.90;;;;;;5050915;28;20094;-65
2022/02/03 16:55:23;;;;;;;19.63;2.20;;;17.10;99.90;;;;;;5051386;28;20028;-65
2022/02/03 16:57:54;;;;;;;15.60;2.30;;;17.10;99.90;;;;;;5051905;28;20033;-64
2022/02/03 17:00:22;;;;;;;18.92;2.42;;;17.20;99.90;;;;;;5050091;28;20036;-65
2022/02/03 17:02:51;;;;;;;14.13;1.83;;;17.20;99.90;;;;;;5050492;28;20032;-65
2022/02/03 17:05:18;;;;;;;14.07;2.28;;;17.20;99.90;;;;;;5052254;28;20024;-64
2022/02/03 17:07:46;;;;;;;12.88;2.38;;;17.20;99.90;;;;;;5051369;28;20485;-64
2022/02/03 17:10:13;;;;;;;12.55;2.13;;;17.20;99.90;;;;;;5052863;28;20084;-65
2022/02/03 17:12:40;;;;;;;16.52;1.90;;;17.30;99.90;;;;;;5051094;28;20467;-64
2022/02/03 17:15:08;;;;;;;17.88;2.47;;;17.30;99.90;;;;;;5048192;28;20108;-64
2022/02/03 17:17:36;;;;;;;11.80;1.92;;;17.30;99.90;;;;;;5034026;28;20025;-64
2022/02/03 17:20:04;;;;;;;9.25;1.45;;;17.40;99.90;;;;;;5052169;28;20025;-64
2022/02/03 17:22:40;;;;;;;10.40;1.50;;;17.50;99.90;;;;;;5052250;28;20461;-64
2022/02/03 17:25:31;;;;;;;8.82;1.25;;;17.40;99.90;;;;;;5043920;28;20037;-64
2022/02/03 17:28:18;;;;;;;5.85;1.27;;;17.40;99.90;;;;;;5052584;28;20037;-64
2022/02/03 17:31:01;;;;;;;6.32;1.67;;;17.50;99.90;;;;;;5048177;28;20052;-64
2022/02/03 18:03:59;;;;;;;12.15;1.60;;;17.30;99.90;;;;;;5047495;28;20651;-64
2022/02/03 18:19:48;;;;;;;8.13;1.33;;;17.10;99.90;;;;;;5050195;28;20044;-64
2022/02/03 18:33:38;;;;;;;7.38;0.73;;;16.90;99.90;;;;;;5052033;28;20033;-64
2022/02/03 18:54:31;;;;;;;5.70;1.02;;;16.30;99.90;;;;;;5047527;28;20040;-64
2022/02/03 18:57:14;;;;;;;7.57;1.02;;;16.20;99.90;;;;;;5052406;28;20529;-64
2022/02/03 19:11:49;;;;;;;6.63;0.60;;;16.10;99.90;;;;;;5052876;28;20040;-64
2022/02/03 19:24:33;;;;;;;4.97;0.65;;;16.10;99.90;;;;;;5048298;28;20071;-64
2022/02/03 20:07:41;;;;;;;8.18;1.20;;;16.20;99.90;;;;;;5049675;28;20555;-64
2022/02/03 20:10:30;;;;;;;5.03;0.50;;;16.20;99.90;;;;;;5048550;28;20052;-65
2022/02/03 20:12:58;;;;;;;7.55;1.35;;;16.20;99.90;;;;;;5045457;28;20072;-65
2022/02/03 20:15:25;;;;;;;6.63;0.70;;;16.30;99.90;;;;;;5047679;28;20439;-65
2022/02/03 20:17:54;;;;;;;7.82;0.90;;;16.30;99.90;;;;;;5046422;28;20103;-64
2022/02/03 20:20:22;;;;;;;10.93;1.25;;;16.50;99.90;;;;;;5049768;28;20104;-64
2022/02/03 20:22:50;;;;;;;7.60;1.73;;;16.60;99.90;;;;;;5048924;28;20039;-65
2022/02/03 20:25:18;;;;;;;11.70;1.83;;;16.70;99.90;;;;;;5045808;28;20025;-65
2022/02/03 20:27:45;;;;;;;8.57;1.05;;;16.90;99.90;;;;;;5050354;28;20037;-65
2022/02/03 20:30:15;;;;;;;9.98;1.77;;;17.10;99.90;;;;;;5046370;28;20061;-65
2022/02/03 20:32:42;;;;;;;10.93;1.00;;;17.30;99.90;;;;;;5049169;28;20032;-65
2022/02/03 20:35:10;;;;;;;13.05;1.20;;;17.30;99.90;;;;;;5052108;28;20032;-65
2022/02/03 20:37:37;;;;;;;10.38;1.48;;;17.30;99.90;;;;;;5051762;28;20422;-65
2022/02/03 20:40:05;;;;;;;7.57;1.20;;;17.40;99.90;;;;;;5046678;28;20056;-65
2022/02/03 20:42:32;;;;;;;10.88;1.05;;;17.60;99.90;;;;;;5046950;28;20108;-64
2022/02/03 20:45:00;;;;;;;16.73;2.28;;;17.70;99.90;;;;;;5046767;28;20468;-65
2022/02/03 20:47:30;;;;;;;17.92;1.92;;;17.80;99.90;;;;;;5050526;28;20078;-65
2022/02/03 20:49:59;;;;;;;13.05;1.10;;;17.80;99.90;;;;;;5045910;28;20029;-65
2022/02/03 20:52:26;;;;;;;9.15;1.33;;;17.60;99.90;;;;;;5052370;28;20116;-65
2022/02/03 20:54:54;;;;;;;14.70;2.08;;;17.60;99.90;;;;;;5051361;28;20071;-65
2022/02/03 20:57:21;;;;;;;13.40;2.15;;;17.50;99.90;;;;;;5049745;28;20074;-65
2022/02/03 21:05:18;;;;;;;9.55;1.38;;;17.70;99.90;;;;;;5028673;28;20045;-65
2022/02/03 21:07:48;;;;;;;13.25;2.13;;;17.80;99.90;;;;;;5052956;28;20074;-65
2022/02/03 21:10:21;;;;;;;12.38;1.35;;;17.80;99.90;;;;;;5048089;28;20568;-65
2022/02/03 21:12:49;;;;;;;15.68;1.67;;;17.70;99.90;;;;;;5045324;28;20028;-65
2022/02/03 21:15:23;;;;;;;9.18;1.65;;;17.80;99.90;;;;;;5042366;28;20070;-65
2022/02/03 21:17:52;;;;;;;11.95;1.55;;;17.90;99.90;;;;;;5048203;28;20043;-66
2022/02/03 21:20:22;;;;;;;10.52;1.00;;;17.90;99.90;;;;;;5042179;28;20059;-65
2022/02/03 21:22:53;;;;;;;7.50;1.65;;;17.90;99.90;;;;;;5048931;28;20025;-65
2022/02/03 21:27:53;;;;;;;12.02;2.05;;;17.90;99.90;;;;;;5048795;28;20528;-66
2022/02/03 21:30:23;;;;;;;10.77;1.98;;;17.80;99.90;;;;;;5046305;28;20033;-65
2022/02/03 21:32:53;;;;;;;8.63;1.35;;;17.80;99.90;;;;;;5048347;28;20048;-65
2022/02/03 21:35:22;;;;;;;14.05;2.10;;;17.70;99.90;;;;;;5045213;28;20029;-65
2022/02/03 21:37:51;;;;;;;11.52;1.60;;;17.60;99.90;;;;;;5050034;28;20025;-65
2022/02/03 21:40:20;;;;;;;13.45;1.45;;;17.60;99.90;;;;;;5034093;28;20060;-65
2022/02/03 21:42:49;;;;;;;9.02;1.40;;;17.70;99.90;;;;;;5049711;28;20035;-66
2022/02/03 21:45:18;;;;;;;9.25;1.20;;;17.70;99.90;;;;;;5050031;28;20098;-65
2022/02/03 21:47:46;;;;;;;7.40;1.50;;;17.60;99.90;;;;;;5043710;28;20025;-65
2022/02/03 21:50:14;;;;;;;7.80;1.67;;;17.70;99.90;;;;;;5048272;28;20120;-65
2022/02/03 21:52:48;;;;;;;5.05;1.38;;;17.70;99.90;;;;;;5042780;28;20174;-65
2022/02/03 21:55:17;;;;;;;12.02;2.17;;;17.70;99.90;;;;;;5050429;28;20044;-65
2022/02/03 21:57:48;;;;;;;7.88;1.13;;;17.70;99.90;;;;;;5048901;28;20029;-65
2022/02/03 22:00:17;;;;;;;11.02;2.25;;;17.70;99.90;;;;;;5049847;28;20143;-65
2022/02/03 22:02:45;;;;;;;10.45;1.50;;;17.80;99.90;;;;;;5043425;28;20029;-65
2022/02/03 22:05:13;;;;;;;9.52;1.38;;;17.90;99.90;;;;;;5042340;28;20029;-64
2022/02/03 22:07:43;;;;;;;9.95;1.50;;;18.00;99.90;;;;;;5046429;28;20123;-64
2022/02/03 22:10:13;;;;;;;8.05;1.08;;;18.30;99.90;;;;;;5049631;28;20461;-64
2022/02/03 22:12:41;;;;;;;8.43;1.35;;;18.60;99.90;;;;;;5044843;28;20032;-65
2022/02/03 22:15:09;;;;;;;9.23;1.65;;;18.70;99.90;;;;;;5046887;28;20108;-64
2022/02/03 22:17:38;;;;;;;8.10;1.30;;;18.80;99.90;;;;;;5043683;28;20031;-64
2022/02/03 22:20:10;;;;;;;8.90;1.08;;;19.10;99.90;;;;;;5048018;28;20033;-64
2022/02/03 22:25:33;;;;;;;8.75;0.90;;;19.50;99.90;;;;;;5043142;28;20025;-65
2022/02/03 22:49:11;;;;;;;10.03;1.97;;;20.00;99.90;;;;;;5013505;28;20055;-64
2022/02/03 22:51:41;;;;;;;6.65;1.75;;;19.60;99.90;;;;;;5049259;28;20498;-64
2022/02/03 22:54:10;;;;;;;9.00;1.45;;;19.40;99.90;;;;;;5052599;28;20025;-64
2022/02/03 22:56:37;;;;;;;9.80;0.90;;;19.20;99.90;;;;;;5054268;28;20029;-64
2022/02/03 23:01:42;;;;;;;6.30;1.27;;;18.80;99.90;;;;;;5051382;28;20481;-64
2022/02/03 23:04:11;;;;;;;11.18;0.90;;;18.80;99.90;;;;;;5050600;28;20029;-64
2022/02/03 23:06:38;;;;;;;6.55;0.95;;;18.70;99.90;;;;;;5049748;28;20044;-65
2022/02/03 23:09:17;;;;;;;7.90;0.93;;;19.00;99.90;;;;;;5051798;28;20048;-64
2022/02/03 23:14:37;;;;;;;7.30;1.80;;;19.10;99.90;;;;;;5049291;28;20112;-64
2022/02/03 23:17:28;;;;;;;8.95;1.30;;;19.10;99.90;;;;;;5051386;28;20452;-63
2022/02/03 23:20:09;;;;;;;9.55;1.92;;;19.00;99.90;;;;;;5044134;28;20533;-64
2022/02/03 23:22:37;;;;;;;9.43;1.10;;;19.00;99.90;;;;;;5050462;28;20072;-64
2022/02/03 23:25:12;;;;;;;8.63;1.00;;;19.20;99.90;;;;;;5053403;28;20029;-64
2022/02/03 23:30:19;;;;;;;8.40;1.67;;;19.20;99.90;;;;;;5038442;28;20032;-64
2022/02/03 23:32:48;;;;;;;6.07;1.17;;;19.40;99.90;;;;;;5055046;28;20025;-64
2022/02/03 23:35:19;;;;;;;6.32;0.90;;;19.60;99.90;;;;;;5053257;28;20543;-64
2022/02/03 23:38:05;;;;;;;7.53;1.48;;;19.70;99.90;;;;;;5049777;28;20449;-64
2022/02/03 23:51:28;;;;;;;9.77;1.10;;;21.60;99.90;;;;;;5052989;28;20115;-64
